Aérodrome :
LOGIN :

S'inscrire | Disclaimer

   EN    FR    IT 

 










Légende :    VFR   VFR Marginal   IFR   IFR Intensif   IFR Très Intensif
Visi : 
Plafond : 
>= 8 km
>= 3000ft
5 à 8 km
1000 à 3000 ft
1500m à 5 km
500 à 1000 ft
800 à 1500m
200 à 500 ft
< 800m
< 200 ft
Symboles :   Orages  Brouillard  Fortes neiges  Fortes précipitations  Vent > 20 kt
SIGMETs :   Divers  Orages  Givrage  Turbulence  Onde Orograph.  Cendres Volcan.







- Altitude de l'aérodrome : 529 ft
- Code IATA : CHR
- Voir les cartes d'approche


LFLX - Chateauroux

DERNIER METAR :
  • 300230Z AUTO 05002KT CAVOK 03/01 Q1007 NOSIG

METARs EXPIRÉS :
  • 300200Z AUTO 13002KT CAVOK 07/02 Q1007 NOSIG
  • 300130Z AUTO 11003KT CAVOK 07/02 Q1007 NOSIG
  • 300100Z AUTO 14004KT CAVOK 08/02 Q1007 NOSIG
  • 300030Z AUTO 14005KT CAVOK 07/02 Q1008 NOSIG
  • 300000Z AUTO 13004KT CAVOK 05/02 Q1008 NOSIG

TAF TAF LFLX
Valide du 30 à 00h jusqu'au 01 à 06h UTC


292300Z 3000/0106 12007KT CAVOK
BECMG 3008/3011 15015KT -RA SCT025CB BKN030
TEMPO 3012/3019 27010G20KT RA SCT020CB BKN025
PROB30
TEMPO 3014/3018 22020G35KT 3000 -TSRA BKN020
BECMG 3019/3021 22012G25KT 9999 NSW BKN040
BECMG 0100/0103 22015G25KT BKN020
TEMPO 0102/0106 22015G30KT -SHRA SCT015CB BKN020
Pas de NOTAMs connus pour ce terrain.
3 SIGMETs publiés pour la FIR Bordeaux (LFBB) :
 
Turbulence forte
LFBB SIGMET 2 VALID 300000/300400 LFPW
LFBB BORDEAUX FIR/UIR SEV TURB FCST WI N4430 E00245 - N4315 E00230 - N4315 E00145 - N4415 E00215 SFC/FL060 STNR INTSF=
Onde orographique forte
LFBB SIGMET 1 VALID 300400/300800 LFPW
LFBB BORDEAUX FIR/UIR SEV MTW FCST S OF LINE N4245 E00230 - N4330 W00145 SFC/FL340 STNR INTSF=
Turbulence forte
LFBB SIGMET 1 VALID 300000/300400 LFPW
LFBB BORDEAUX FIR/UIR SEV TURB FCST S OF LINE N4245 E00230 - N4330 W00145 SFC/FL140 STNR INTSF=



MET'MAP, la Météo Aéronautique d'un coup d'oeil ! - Copyright ORBIFLY Décembre 2007 - Disclaimer

ORBIFLY MET'MAP TEAM :

Programmation & Développement : Alexandra Zaïnal
Conception & Développement : Baudouin d'Aumeries
Co-Programmation & Développement : Marc-Olivier Méhu
Soutien technique & logistique : Manuel Goepfert

Contact : metmap@orbifly.com




SOURCES & CREDITS :

   NOAA